Time;durP1;ratioP1;P1;durP2;ratioP2;P2;SDS_P1;SDS_P2;PMS_P1;PMS_P2;Temp;Humidity;BMP_temperature;BMP_pressure;BME280_temperature;BME280_humidity;BME280_pressure;Samples;Min_cycle;Max_cycle;Signal;HPM_P1;HPM_P2
2021/05/11 00:02:23;;;;;;;10.60;3.67;;;17.70;99.90;;;;;;5052588;28;20525;-77
2021/05/11 00:04:48;;;;;;;8.00;3.80;;;17.70;99.90;;;;;;5052771;28;20025;-82
2021/05/11 00:07:14;;;;;;;6.35;3.90;;;17.70;99.90;;;;;;5052255;28;20419;-83
2021/05/11 00:09:40;;;;;;;11.10;3.95;;;17.70;99.90;;;;;;5052937;28;20473;-81
2021/05/11 00:12:06;;;;;;;7.50;3.80;;;17.70;99.90;;;;;;5034597;28;20125;-78
2021/05/11 00:14:32;;;;;;;8.18;4.00;;;17.60;99.90;;;;;;5034312;28;20078;-75
2021/05/11 00:16:58;;;;;;;6.57;4.15;;;17.70;99.90;;;;;;5052139;28;20032;-80
2021/05/11 00:19:24;;;;;;;8.38;3.95;;;17.60;99.90;;;;;;5042592;28;20037;-79
2021/05/11 00:21:50;;;;;;;7.47;3.78;;;17.60;99.90;;;;;;5032057;28;20033;-78
2021/05/11 00:24:16;;;;;;;5.20;3.53;;;17.60;99.90;;;;;;5032277;28;20091;-82
2021/05/11 00:26:43;;;;;;;7.82;4.50;;;17.60;99.90;;;;;;5031746;28;20531;-80
2021/05/11 00:29:09;;;;;;;8.90;4.57;;;17.50;99.90;;;;;;5032516;28;20029;-79
2021/05/11 00:31:34;;;;;;;5.72;3.70;;;17.50;99.90;;;;;;5014126;28;20120;-81
2021/05/11 00:34:00;;;;;;;7.82;4.50;;;17.50;99.90;;;;;;5032185;28;20056;-79
2021/05/11 00:36:26;;;;;;;8.48;5.15;;;17.40;99.90;;;;;;5014143;28;20083;-80
2021/05/11 00:38:52;;;;;;;6.68;4.03;;;17.40;99.90;;;;;;5032021;28;20033;-79
2021/05/11 00:41:18;;;;;;;9.50;4.50;;;17.30;99.90;;;;;;5031877;28;20629;-76
2021/05/11 00:43:45;;;;;;;7.20;4.20;;;17.10;99.90;;;;;;5032167;28;20018;-79
2021/05/11 00:46:12;;;;;;;10.23;4.18;;;17.20;99.90;;;;;;5031497;28;20029;-81
2021/05/11 00:48:38;;;;;;;6.55;4.30;;;17.30;99.90;;;;;;5032063;28;20025;-82
2021/05/11 00:51:05;;;;;;;7.63;4.40;;;17.40;99.90;;;;;;5031737;28;20037;-79
2021/05/11 00:53:32;;;;;;;5.80;4.20;;;17.40;99.90;;;;;;5014186;28;20052;-79
2021/05/11 00:55:58;;;;;;;6.00;4.25;;;17.30;99.90;;;;;;5031708;28;20055;-78
2021/05/11 00:58:25;;;;;;;7.70;4.28;;;17.40;99.90;;;;;;5031862;28;20053;-78
2021/05/11 01:00:50;;;;;;;6.88;4.75;;;17.40;99.90;;;;;;5031449;28;20105;-80
2021/05/11 01:03:16;;;;;;;6.68;5.05;;;17.40;99.90;;;;;;5013793;28;20104;-79
2021/05/11 01:05:42;;;;;;;6.88;4.65;;;17.30;99.90;;;;;;5031763;28;20042;-76
2021/05/11 01:08:10;;;;;;;8.05;4.47;;;17.30;99.90;;;;;;5013873;28;20025;-82
2021/05/11 01:10:36;;;;;;;7.85;4.88;;;17.30;99.90;;;;;;5013462;28;20080;-83
2021/05/11 01:13:02;;;;;;;9.50;4.45;;;17.30;99.90;;;;;;5031668;28;20117;-78
2021/05/11 01:15:29;;;;;;;10.80;4.40;;;17.20;99.90;;;;;;5014047;28;20028;-81
2021/05/11 01:18:06;;;;;;;9.45;4.53;;;17.20;99.90;;;;;;5013252;28;20073;-81
2021/05/11 01:20:39;;;;;;;7.22;4.25;;;17.10;99.90;;;;;;5031007;28;20581;-81
2021/05/11 01:25:38;;;;;;;8.63;4.47;;;17.10;99.90;;;;;;5051670;28;20025;-81
2021/05/11 01:28:20;;;;;;;9.48;4.85;;;17.20;99.90;;;;;;5033447;28;20120;-81
2021/05/11 02:11:18;;;;;;;9.00;4.53;;;16.80;99.90;;;;;;5054810;28;20091;-82
2021/05/11 02:24:37;;;;;;;6.53;4.30;;;16.50;99.90;;;;;;5033593;28;20037;-81
2021/05/11 02:27:03;;;;;;;6.88;4.28;;;16.50;99.90;;;;;;5033321;28;20014;-79
2021/05/11 02:29:29;;;;;;;7.93;4.43;;;16.40;99.90;;;;;;5033131;28;20033;-81
2021/05/11 02:31:54;;;;;;;10.07;5.10;;;16.50;99.90;;;;;;5015463;28;20477;-80
2021/05/11 02:34:20;;;;;;;9.73;6.15;;;16.40;99.90;;;;;;5032999;28;20021;-81
2021/05/11 02:36:46;;;;;;;8.38;5.20;;;16.30;99.90;;;;;;5015020;28;20033;-79
2021/05/11 02:39:11;;;;;;;8.75;5.25;;;16.30;99.90;;;;;;5032736;28;20026;-79
2021/05/11 02:41:40;;;;;;;9.70;5.82;;;16.30;99.90;;;;;;5015618;28;20053;-77
2021/05/11 02:44:06;;;;;;;11.45;5.93;;;16.30;99.90;;;;;;5015148;28;20523;-77
2021/05/11 02:46:32;;;;;;;8.05;6.00;;;16.30;99.90;;;;;;5033096;28;20033;-79
2021/05/11 02:48:59;;;;;;;12.85;5.80;;;15.90;99.90;;;;;;5033276;28;20032;-79
2021/05/11 02:51:24;;;;;;;13.63;6.18;;;15.80;99.90;;;;;;5032647;28;20083;-78
2021/05/11 02:53:50;;;;;;;7.65;5.45;;;15.60;99.90;;;;;;5015407;28;20499;-77
2021/05/11 02:56:16;;;;;;;10.23;6.20;;;15.70;99.90;;;;;;5015488;28;20030;-78
2021/05/11 02:58:43;;;;;;;9.98;5.88;;;15.80;99.90;;;;;;5015013;28;20377;-79
2021/05/11 03:01:09;;;;;;;8.23;5.93;;;15.30;99.90;;;;;;5032862;28;20029;-77
2021/05/11 03:03:34;;;;;;;10.45;6.20;;;15.50;99.90;;;;;;5014793;28;20030;-78
2021/05/11 03:06:00;;;;;;;9.55;6.38;;;15.70;99.90;;;;;;5032908;28;20084;-79
2021/05/11 03:08:26;;;;;;;10.13;6.05;;;15.90;99.90;;;;;;5032320;28;20053;-78
2021/05/11 03:10:51;;;;;;;11.05;6.13;;;16.00;99.90;;;;;;5014925;28;20574;-79
2021/05/11 03:13:17;;;;;;;8.40;6.10;;;16.00;99.90;;;;;;5032602;28;20465;-78
2021/05/11 03:15:43;;;;;;;7.53;5.72;;;16.10;99.90;;;;;;5014630;28;20366;-78
2021/05/11 03:18:09;;;;;;;8.77;6.22;;;16.10;99.90;;;;;;5008518;28;688339;-77
2021/05/11 03:20:34;;;;;;;8.43;5.70;;;16.20;99.90;;;;;;5030329;28;20044;-79
2021/05/11 03:23:01;;;;;;;13.40;6.85;;;16.10;99.90;;;;;;5053188;28;20473;-80
2021/05/11 03:25:34;;;;;;;8.95;5.78;;;16.00;99.90;;;;;;5053448;28;20035;-80
2021/05/11 03:28:00;;;;;;;11.48;5.65;;;16.00;99.90;;;;;;5053369;28;20017;-78
2021/05/11 03:30:26;;;;;;;10.20;5.88;;;16.10;99.90;;;;;;5035103;28;20037;-82
2021/05/11 03:32:52;;;;;;;9.93;5.05;;;16.00;99.90;;;;;;5053283;28;20025;-81
2021/05/11 03:35:17;;;;;;;13.95;6.30;;;16.00;99.90;;;;;;5035192;28;20021;-80
2021/05/11 03:37:43;;;;;;;8.77;5.85;;;16.10;99.90;;;;;;5052616;28;20534;-80
2021/05/11 03:40:09;;;;;;;12.25;6.30;;;16.20;99.90;;;;;;5052956;28;20136;-80
2021/05/11 03:43:02;;;;;;;9.10;6.00;;;16.30;99.90;;;;;;5053429;28;20021;-78
2021/05/11 03:45:25;;;;;;;10.93;5.60;;;16.10;99.90;;;;;;5052151;28;20033;-82
2021/05/11 03:47:54;;;;;;;8.80;6.43;;;16.20;99.90;;;;;;5035164;28;20041;-80
2021/05/11 03:50:20;;;;;;;9.82;6.00;;;16.20;99.90;;;;;;5052636;28;20036;-76
2021/05/11 03:52:45;;;;;;;11.50;6.28;;;16.00;99.90;;;;;;5052983;28;20021;-79
2021/05/11 03:55:12;;;;;;;11.30;6.00;;;15.90;99.90;;;;;;5034860;28;20357;-79
2021/05/11 03:57:37;;;;;;;12.88;7.30;;;15.90;99.90;;;;;;5052215;28;20108;-78
2021/05/11 04:00:05;;;;;;;13.27;6.78;;;15.90;99.90;;;;;;5052014;28;20102;-79
2021/05/11 04:02:30;;;;;;;12.05;7.22;;;15.90;99.90;;;;;;5052547;28;20021;-77
2021/05/11 04:04:56;;;;;;;18.92;6.72;;;15.90;99.90;;;;;;5052846;28;20033;-79
2021/05/11 04:07:22;;;;;;;17.63;7.75;;;15.90;99.90;;;;;;5052364;28;20028;-80
2021/05/11 04:09:59;;;;;;;22.23;8.35;;;15.90;99.90;;;;;;5052399;28;20031;-79
2021/05/11 04:17:43;;;;;;;17.25;7.53;;;16.00;99.90;;;;;;5051850;28;20538;-80
2021/05/11 04:20:10;;;;;;;18.00;8.48;;;16.00;99.90;;;;;;5043152;28;20036;-79
2021/05/11 04:22:36;;;;;;;13.90;8.07;;;16.10;99.90;;;;;;5032302;28;20366;-82
2021/05/11 04:25:02;;;;;;;12.00;7.10;;;16.00;99.90;;;;;;5032019;28;20531;-79
2021/05/11 04:27:28;;;;;;;11.38;7.13;;;16.20;99.90;;;;;;5032353;28;20026;-80
2021/05/11 04:29:59;;;;;;;15.68;7.57;;;16.10;99.90;;;;;;5032020;28;20026;-80
2021/05/11 04:32:24;;;;;;;16.75;7.63;;;16.00;99.90;;;;;;5031774;28;20434;-81
2021/05/11 04:34:50;;;;;;;17.45;8.88;;;16.00;99.90;;;;;;5032478;28;20120;-79
2021/05/11 04:37:16;;;;;;;17.60;8.18;;;16.00;99.90;;;;;;5031657;28;20030;-82
2021/05/11 04:39:42;;;;;;;11.15;7.68;;;16.00;99.90;;;;;;5031879;28;20034;-80
2021/05/11 04:42:07;;;;;;;13.88;7.22;;;16.00;99.90;;;;;;5031907;28;20083;-79
2021/05/11 04:44:33;;;;;;;10.35;6.93;;;16.10;99.90;;;;;;5031794;28;20060;-79
2021/05/11 04:49:36;;;;;;;11.05;7.63;;;16.10;99.90;;;;;;5032150;28;20423;-80
2021/05/11 04:52:02;;;;;;;15.75;7.65;;;16.10;99.90;;;;;;5031697;28;20230;-79
2021/05/11 04:54:28;;;;;;;11.80;6.82;;;16.20;99.90;;;;;;5031593;28;20383;-81
2021/05/11 04:56:53;;;;;;;12.23;6.75;;;16.10;99.90;;;;;;5031394;28;20532;-79
2021/05/11 04:59:19;;;;;;;18.25;7.43;;;16.00;99.90;;;;;;5031947;28;20109;-81
2021/05/11 05:01:47;;;;;;;15.90;7.65;;;15.80;99.90;;;;;;5031395;28;20491;-80
2021/05/11 05:04:15;;;;;;;11.75;6.85;;;16.00;99.90;;;;;;5013983;28;20037;-82
2021/05/11 05:06:40;;;;;;;14.23;6.38;;;16.00;99.90;;;;;;5031737;28;20477;-85
2021/05/11 05:09:06;;;;;;;10.30;6.75;;;16.00;99.90;;;;;;5032075;28;20101;-80
2021/05/11 05:11:34;;;;;;;13.20;6.65;;;16.00;99.90;;;;;;5012906;28;20477;-81
2021/05/11 05:14:00;;;;;;;29.30;19.52;;;16.10;99.90;;;;;;5630992;23;20107;-80
2021/05/11 05:16:26;;;;;;;93.95;58.08;;;16.60;99.90;;;;;;5012750;28;20025;-83
2021/05/11 05:18:52;;;;;;;29.13;19.08;;;16.80;99.90;;;;;;5031276;28;20053;-85
2021/05/11 05:21:18;;;;;;;103.88;66.22;;;17.00;99.90;;;;;;5031530;28;20118;-79
2021/05/11 05:23:47;;;;;;;67.07;43.42;;;17.00;99.90;;;;;;5031386;28;20017;-80
2021/05/11 05:26:17;;;;;;;52.25;34.78;;;17.10;99.90;;;;;;5013513;28;20047;-78
2021/05/11 05:28:43;;;;;;;169.35;101.72;;;17.20;99.90;;;;;;5013570;28;20083;-74
2021/05/11 05:31:09;;;;;;;50.72;33.00;;;17.20;99.90;;;;;;5030924;28;20404;-74
2021/05/11 05:33:39;;;;;;;22.20;13.32;;;17.20;99.90;;;;;;5030890;28;20022;-75
2021/05/11 05:36:06;;;;;;;16.08;7.88;;;17.20;99.90;;;;;;5031255;28;20142;-76
2021/05/11 05:38:33;;;;;;;8.45;6.40;;;17.10;99.90;;;;;;5031160;28;20034;-78
2021/05/11 05:41:06;;;;;;;9.13;6.25;;;16.90;99.90;;;;;;5031222;28;20021;-78
2021/05/11 05:43:32;;;;;;;9.98;6.15;;;16.90;99.90;;;;;;5013316;28;20477;-79
2021/05/11 05:45:58;;;;;;;9.77;6.78;;;16.80;99.90;;;;;;5046011;28;20036;-78
2021/05/11 05:48:24;;;;;;;11.05;7.20;;;16.80;99.90;;;;;;5051109;28;20025;-75
2021/05/11 05:50:54;;;;;;;13.93;6.30;;;17.00;99.90;;;;;;5047699;28;20439;-82
2021/05/11 05:53:34;;;;;;;;;;;16.90;99.90;;;;;;5051348;28;20014;-75
2021/05/11 05:56:03;;;;;;;13.15;6.63;;;17.00;99.90;;;;;;5050673;28;19904;-76
2021/05/11 05:58:29;;;;;;;14.65;6.47;;;17.20;99.90;;;;;;5051070;28;20423;-75
2021/05/11 06:01:01;;;;;;;13.75;6.70;;;17.30;99.90;;;;;;5025731;28;20022;-78
2021/05/11 06:03:35;;;;;;;14.55;8.02;;;17.40;99.90;;;;;;5025757;28;20022;-78
2021/05/11 06:06:03;;;;;;;8.77;6.40;;;17.40;99.90;;;;;;5018830;28;20018;-79
2021/05/11 06:08:29;;;;;;;53.35;32.10;;;17.40;99.90;;;;;;5030822;28;20026;-80
2021/05/11 06:11:26;;;;;;;40.50;24.13;;;17.50;99.90;;;;;;5030624;28;20030;-79
2021/05/11 06:18:55;;;;;;;14.85;8.43;;;17.90;99.90;;;;;;5018877;28;20065;-78
2021/05/11 06:21:20;;;;;;;12.30;6.55;;;17.80;99.90;;;;;;5014571;28;20022;-76
2021/05/11 06:23:46;;;;;;;14.88;7.30;;;17.90;99.90;;;;;;5017607;28;20030;-77
2021/05/11 06:26:13;;;;;;;16.83;7.28;;;17.90;99.90;;;;;;5022082;28;20022;-77
2021/05/11 06:28:41;;;;;;;13.00;7.13;;;17.90;99.90;;;;;;5000757;28;20033;-74
2021/05/11 06:31:08;;;;;;;13.75;6.65;;;17.90;99.90;;;;;;4978596;28;20038;-76
2021/05/11 06:33:34;;;;;;;12.27;6.70;;;17.90;99.90;;;;;;4994634;28;20033;-80
2021/05/11 06:36:01;;;;;;;17.83;6.43;;;18.00;99.90;;;;;;4994844;28;20105;-79
2021/05/11 06:38:27;;;;;;;11.25;6.05;;;18.00;99.90;;;;;;5012677;28;20080;-82
2021/05/11 06:40:53;;;;;;;10.65;6.50;;;18.00;99.90;;;;;;5022887;28;20050;-76
2021/05/11 06:43:31;;;;;;;11.57;6.18;;;18.10;99.90;;;;;;5022856;28;20033;-76
2021/05/11 06:46:15;;;;;;;13.73;6.22;;;18.20;99.90;;;;;;5002525;28;20358;-77
2021/05/11 06:53:55;;;;;;;9.95;6.10;;;18.40;99.90;;;;;;5014061;28;20470;-74
2021/05/11 06:56:22;;;;;;;9.88;6.43;;;18.30;99.90;;;;;;5013746;28;20488;-75
2021/05/11 06:58:48;;;;;;;17.50;6.97;;;18.40;99.90;;;;;;5013244;28;20493;-77
2021/05/11 07:01:18;;;;;;;14.07;5.93;;;18.40;99.90;;;;;;4976241;28;20478;-75
2021/05/11 07:03:44;;;;;;;13.02;5.78;;;18.40;99.90;;;;;;4994004;28;20026;-79
2021/05/11 07:06:12;;;;;;;16.17;6.20;;;18.50;99.90;;;;;;4976162;28;20041;-75
2021/05/11 07:08:44;;;;;;;15.85;7.28;;;18.60;99.90;;;;;;4994189;28;20448;-78
2021/05/11 07:13:08;;;;;;;12.02;5.68;;;18.70;99.90;;;;;;4994261;28;20474;-76
2021/05/11 07:13:56;;;;;;;9.50;5.28;;;18.60;99.90;;;;;;4994952;28;20033;-75
2021/05/11 07:16:22;;;;;;;9.05;5.10;;;18.40;99.90;;;;;;5013621;28;20025;-77
2021/05/11 07:18:47;;;;;;;8.23;4.72;;;18.40;99.90;;;;;;5019659;28;20461;-77
2021/05/11 07:21:13;;;;;;;12.57;5.20;;;18.50;99.90;;;;;;5004821;28;20029;-77
2021/05/11 07:23:39;;;;;;;8.98;5.07;;;18.60;99.90;;;;;;5023963;28;20029;-75
2021/05/11 07:29:08;;;;;;;8.00;3.95;;;18.80;99.90;;;;;;5006035;28;20138;-75
2021/05/11 07:31:36;;;;;;;8.85;4.75;;;18.80;99.90;;;;;;5000776;28;20022;-75
2021/05/11 07:34:03;;;;;;;10.45;3.63;;;18.90;99.90;;;;;;5013661;28;20044;-75
2021/05/11 07:36:31;;;;;;;15.43;4.22;;;19.00;99.90;;;;;;5003741;28;20101;-78
2021/05/11 07:38:56;;;;;;;12.52;4.18;;;19.00;99.90;;;;;;5032734;28;20021;-78
2021/05/11 07:41:22;;;;;;;6.72;3.80;;;19.00;99.90;;;;;;5010976;28;20032;-77
2021/05/11 07:43:53;;;;;;;9.07;3.63;;;19.10;99.90;;;;;;5019824;28;20034;-80
2021/05/11 07:46:28;;;;;;;8.30;4.15;;;19.10;99.90;;;;;;5019517;28;20033;-76
2021/05/11 08:15:36;;;;;;;7.82;3.58;;;19.90;99.90;;;;;;4957302;28;20078;-75
2021/05/11 08:28:47;;;;;;;6.47;3.30;;;20.20;99.90;;;;;;5011501;28;20045;-77
2021/05/11 08:31:28;;;;;;;11.07;6.97;;;20.30;99.90;;;;;;4992200;28;20034;-77
2021/05/11 08:34:07;;;;;;;10.43;6.68;;;20.50;99.90;;;;;;4990348;28;20169;-81
2021/05/11 08:36:37;;;;;;;11.32;7.80;;;20.60;99.90;;;;;;4992311;28;20030;-81
2021/05/11 08:39:03;;;;;;;;;;;20.60;99.90;;;;;;4977098;28;20033;-89
2021/05/11 08:41:29;;;;;;;10.20;6.72;;;20.80;99.90;;;;;;5007132;28;19916;-90
2021/05/11 08:43:55;;;;;;;9.68;4.35;;;20.90;99.20;;;;;;5013466;28;20033;-85
2021/05/11 08:46:21;;;;;;;13.73;6.95;;;21.00;99.10;;;;;;5008576;28;20087;-81
2021/05/11 08:48:54;;;;;;;10.30;5.07;;;21.10;99.10;;;;;;5012993;28;20374;-84
2021/05/11 08:51:27;;;;;;;15.02;5.88;;;21.10;98.80;;;;;;4997772;28;20034;-84
2021/05/11 09:05:13;;;;;;;10.75;3.85;;;21.70;98.00;;;;;;5007927;28;20131;-87
2021/05/11 09:54:30;;;;;;;6.32;2.90;;;24.10;89.80;;;;;;5000819;28;20085;-90
2021/05/11 10:40:21;;;;;;;6.97;3.10;;;26.00;73.70;;;;;;5025689;28;20080;-88
2021/05/11 10:48:26;;;;;;;5.43;3.08;;;26.00;73.70;;;;;;4998949;28;20096;-78
2021/05/11 10:50:58;;;;;;;5.95;3.10;;;25.70;74.50;;;;;;5019931;28;20088;-89
2021/05/11 10:53:59;;;;;;;4.60;2.90;;;25.60;73.60;;;;;;5014702;28;20033;-87
2021/05/11 10:56:28;;;;;;;5.93;2.78;;;25.80;72.20;;;;;;5004318;28;20376;-85
2021/05/11 11:02:13;;;;;;;6.15;2.83;;;26.00;69.80;;;;;;5016139;28;20068;-84
2021/05/11 11:04:46;;;;;;;5.38;3.28;;;25.90;70.40;;;;;;5018860;28;20025;-76
2021/05/11 11:07:14;;;;;;;5.72;3.15;;;26.00;72.30;;;;;;5011323;28;20064;-83
2021/05/11 11:09:41;;;;;;;6.40;2.90;;;26.10;72.80;;;;;;5014149;28;20025;-87
2021/05/11 11:12:10;;;;;;;5.97;3.08;;;26.20;73.20;;;;;;5022339;28;20033;-79
2021/05/11 11:14:42;;;;;;;5.22;3.03;;;26.80;72.10;;;;;;5025436;28;20362;-85
2021/05/11 11:17:27;;;;;;;6.70;3.10;;;26.80;71.50;;;;;;5025613;28;20025;-82
2021/05/11 11:19:55;;;;;;;13.43;2.90;;;27.00;71.40;;;;;;5029029;28;20424;-94
2021/05/11 11:25:06;;;;;;;5.80;3.30;;;26.70;70.60;;;;;;5005543;28;20068;-82
2021/05/11 11:27:33;;;;;;;9.85;4.47;;;27.20;70.60;;;;;;5003067;28;20022;-77
2021/05/11 11:30:01;;;;;;;8.38;3.28;;;27.40;69.60;;;;;;5006605;28;20046;-83
2021/05/11 11:32:27;;;;;;;6.47;3.10;;;27.20;69.80;;;;;;5005190;28;20037;-86
2021/05/11 11:34:55;;;;;;;5.63;3.10;;;27.40;69.90;;;;;;5010603;28;20033;-87
2021/05/11 11:37:23;;;;;;;7.47;4.10;;;26.90;70.40;;;;;;5025085;28;20326;-89
2021/05/11 11:39:51;;;;;;;5.90;3.13;;;26.90;69.60;;;;;;5026888;28;20021;-82
2021/05/11 11:42:20;;;;;;;6.18;3.65;;;26.60;71.30;;;;;;5025898;28;20038;-88
2021/05/11 11:44:51;;;;;;;4.93;3.28;;;26.60;71.40;;;;;;5003249;28;20092;-82
2021/05/11 11:47:18;;;;;;;7.43;3.35;;;26.80;71.10;;;;;;5026871;28;20717;-91
2021/05/11 11:49:49;;;;;;;7.35;3.42;;;26.60;69.30;;;;;;5020815;28;20049;-82
2021/05/11 11:55:16;;;;;;;6.30;3.38;;;27.50;69.70;;;;;;4995584;28;20057;-94
2021/05/11 11:57:57;;;;;;;16.85;7.43;;;27.30;70.00;;;;;;5011389;28;20065;-82
2021/05/11 12:00:32;;;;;;;16.30;7.63;;;27.60;68.40;;;;;;5001365;28;20743;-89
2021/05/11 12:03:11;;;;;;;8.88;5.25;;;27.50;68.60;;;;;;5004484;28;20033;-92
2021/05/11 12:05:46;;;;;;;22.58;8.77;;;27.50;68.20;;;;;;4987358;28;20524;-87
2021/05/11 12:10:47;;;;;;;15.23;5.07;;;27.40;68.80;;;;;;5000070;28;20441;-79
2021/05/11 12:13:17;;;;;;;15.30;6.10;;;27.50;67.70;;;;;;4997145;28;20097;-84
2021/05/11 12:15:43;;;;;;;9.95;4.30;;;27.70;69.20;;;;;;4991851;28;20054;-89
2021/05/11 12:18:19;;;;;;;10.80;3.85;;;28.30;67.70;;;;;;4993918;28;20030;-87
2021/05/11 12:20:52;;;;;;;7.53;3.47;;;27.90;68.10;;;;;;4998181;28;20018;-80
2021/05/11 12:23:19;;;;;;;10.20;3.97;;;28.10;67.80;;;;;;4982535;28;20034;-82
2021/05/11 12:25:55;;;;;;;7.45;3.55;;;28.10;67.10;;;;;;5003702;28;20017;-91
2021/05/11 12:28:34;;;;;;;7.97;3.65;;;28.20;66.50;;;;;;5011695;28;20033;-80
2021/05/11 12:31:02;;;;;;;6.63;3.80;;;28.00;66.30;;;;;;5000493;28;20382;-80
2021/05/11 12:33:36;;;;;;;6.97;3.50;;;28.30;66.30;;;;;;5021675;28;20030;-87
2021/05/11 12:36:21;;;;;;;8.98;4.30;;;28.70;64.90;;;;;;5012010;28;20049;-81
2021/05/11 12:38:48;;;;;;;5.22;3.63;;;29.10;64.40;;;;;;5014314;28;20420;-83
2021/05/11 12:41:31;;;;;;;7.82;3.72;;;29.00;63.10;;;;;;5003515;28;20030;-85
2021/05/11 12:43:58;;;;;;;6.43;4.22;;;28.80;64.20;;;;;;5024251;28;20408;-81
2021/05/11 12:46:29;;;;;;;8.30;3.45;;;28.70;63.40;;;;;;5024671;28;20223;-81
2021/05/11 12:49:17;;;;;;;6.07;3.90;;;29.00;64.30;;;;;;5019092;28;20014;-91
2021/05/11 12:51:49;;;;;;;7.13;3.38;;;29.40;61.90;;;;;;5002085;28;20041;-83
2021/05/11 12:54:37;;;;;;;10.25;4.55;;;29.30;61.50;;;;;;5018360;28;20025;-84
2021/05/11 13:26:27;;;;;;;7.60;3.75;;;30.80;57.80;;;;;;5015213;28;20497;-77
2021/05/11 13:29:12;;;;;;;8.45;3.65;;;30.80;57.70;;;;;;5025090;28;20029;-80
2021/05/11 13:31:43;;;;;;;6.68;3.60;;;30.20;57.70;;;;;;5019945;28;20044;-86
2021/05/11 13:34:10;;;;;;;6.43;3.50;;;30.10;57.60;;;;;;5022203;28;20112;-80
2021/05/11 13:36:40;;;;;;;5.60;3.50;;;30.20;57.80;;;;;;5013197;28;20045;-84
2021/05/11 13:39:07;;;;;;;6.50;4.03;;;30.00;58.20;;;;;;5008654;28;20505;-79
2021/05/11 13:41:33;;;;;;;5.55;3.20;;;30.70;57.50;;;;;;5019700;28;20439;-81
2021/05/11 13:44:00;;;;;;;5.05;3.30;;;30.30;56.50;;;;;;5013847;28;20539;-86
2021/05/11 13:46:26;;;;;;;6.43;3.03;;;30.30;55.50;;;;;;5030623;28;20030;-81
2021/05/11 13:48:52;;;;;;;7.22;3.95;;;30.30;56.00;;;;;;5020478;28;20400;-79
2021/05/11 13:51:18;;;;;;;6.25;3.50;;;30.40;56.30;;;;;;5021783;28;20477;-86
2021/05/11 13:53:53;;;;;;;5.95;3.15;;;30.50;55.00;;;;;;5009196;28;20422;-87
2021/05/11 14:04:01;;;;;;;6.15;3.45;;;29.50;54.80;;;;;;5032766;28;20025;-80
2021/05/11 14:06:27;;;;;;;5.38;3.50;;;29.50;54.70;;;;;;5017084;28;20029;-83
2021/05/11 14:08:53;;;;;;;5.45;3.50;;;29.40;54.30;;;;;;5024871;28;20064;-86
2021/05/11 14:11:19;;;;;;;5.15;3.63;;;29.20;54.20;;;;;;4999071;28;20061;-80
2021/05/11 14:13:44;;;;;;;5.53;3.38;;;29.70;54.50;;;;;;5015472;28;20033;-81
2021/05/11 14:16:10;;;;;;;5.90;3.60;;;29.90;54.20;;;;;;5011904;28;20121;-80
2021/05/11 14:18:36;;;;;;;6.35;3.70;;;30.10;53.40;;;;;;4979619;28;20031;-77
2021/05/11 14:21:02;;;;;;;7.68;3.55;;;29.90;53.90;;;;;;5034215;28;20017;-81
2021/05/11 14:23:28;;;;;;;6.38;3.08;;;29.90;54.40;;;;;;5034437;28;20037;-82
2021/05/11 14:25:53;;;;;;;7.40;3.20;;;30.20;54.40;;;;;;5017409;28;20032;-80
2021/05/11 14:28:19;;;;;;;5.43;3.08;;;29.90;54.00;;;;;;5015996;28;20025;-78
2021/05/11 14:30:45;;;;;;;8.60;3.40;;;30.20;53.50;;;;;;5034490;28;20079;-78
2021/05/11 14:33:11;;;;;;;7.35;3.50;;;29.90;53.50;;;;;;5034586;28;20635;-81
2021/05/11 14:35:37;;;;;;;5.68;3.47;;;29.40;53.50;;;;;;5034240;28;20504;-85
2021/05/11 14:38:03;;;;;;;7.22;3.20;;;29.10;53.90;;;;;;5029433;28;20044;-75
2021/05/11 14:40:29;;;;;;;6.15;3.30;;;29.20;54.50;;;;;;4999200;28;20026;-83
2021/05/11 14:42:55;;;;;;;5.75;3.53;;;29.30;54.60;;;;;;5022321;28;20026;-84
2021/05/11 14:45:21;;;;;;;6.25;3.50;;;29.40;53.90;;;;;;5022452;28;20112;-78
2021/05/11 14:47:47;;;;;;;6.25;3.55;;;29.50;53.10;;;;;;5001530;28;20029;-78
2021/05/11 14:50:17;;;;;;;5.60;3.05;;;29.30;54.00;;;;;;5014166;28;20033;-79
2021/05/11 14:52:44;;;;;;;5.75;3.55;;;29.00;53.70;;;;;;5019113;28;20452;-78
2021/05/11 14:55:13;;;;;;;6.10;3.40;;;29.10;54.30;;;;;;5017830;28;20466;-80
2021/05/11 14:57:40;;;;;;;7.57;3.17;;;29.40;54.50;;;;;;5013034;28;20068;-81
2021/05/11 15:00:07;;;;;;;5.68;3.60;;;30.00;54.70;;;;;;5014071;28;20256;-82
2021/05/11 15:02:34;;;;;;;9.75;3.47;;;30.50;53.00;;;;;;4994015;28;20504;-80
2021/05/11 15:05:00;;;;;;;6.75;3.47;;;30.70;52.80;;;;;;5012600;28;20048;-86
2021/05/11 15:07:26;;;;;;;6.10;3.88;;;30.50;52.30;;;;;;5012768;28;20029;-87
2021/05/11 15:09:52;;;;;;;6.75;3.42;;;30.70;52.10;;;;;;5013580;28;20034;-86
2021/05/11 15:12:18;;;;;;;5.70;3.08;;;30.70;51.00;;;;;;5012795;28;20372;-83
2021/05/11 15:14:44;;;;;;;5.10;3.20;;;31.30;50.60;;;;;;4995460;28;20049;-83
2021/05/11 15:19:53;;;;;;;7.35;3.10;;;32.90;50.00;;;;;;5013480;28;20381;-85
2021/05/11 15:22:29;;;;;;;6.95;2.90;;;32.30;50.30;;;;;;5013337;28;20037;-86
2021/05/11 15:24:55;;;;;;;10.57;7.80;;;30.90;50.40;;;;;;5012996;28;20040;-83
2021/05/11 15:27:21;;;;;;;10.70;8.10;;;29.50;52.20;;;;;;4995366;28;20387;-80
2021/05/11 15:29:47;;;;;;;12.77;7.60;;;28.90;53.40;;;;;;5013013;28;20055;-86
2021/05/11 15:32:38;;;;;;;6.63;3.85;;;28.30;54.30;;;;;;5012931;28;20531;-83
2021/05/11 15:35:09;;;;;;;6.80;3.80;;;28.00;55.30;;;;;;4995812;28;20112;-85
2021/05/11 15:37:36;;;;;;;7.43;3.40;;;28.00;55.80;;;;;;5012624;28;20060;-80
2021/05/11 15:40:07;;;;;;;8.48;3.38;;;28.00;56.30;;;;;;5012263;28;20030;-83
2021/05/11 15:42:33;;;;;;;8.30;4.15;;;27.80;56.50;;;;;;5016931;28;20038;-87
2021/05/11 15:45:15;;;;;;;6.88;3.40;;;28.00;56.60;;;;;;5003322;28;20036;-90
2021/05/11 15:47:52;;;;;;;8.48;3.40;;;28.70;55.90;;;;;;5020958;28;20442;-92
2021/05/11 15:50:29;;;;;;;7.55;3.25;;;28.90;56.20;;;;;;5001041;28;20030;-89
2021/05/11 15:55:31;;;;;;;6.97;3.30;;;31.20;52.60;;;;;;5911331;23;20377;-90
2021/05/11 15:58:00;;;;;;;6.45;2.85;;;33.90;50.60;;;;;;5023432;28;20022;-92
2021/05/11 16:00:37;;;;;;;7.00;3.03;;;35.60;48.20;;;;;;5033291;28;20029;-89
2021/05/11 16:03:04;;;;;;;8.10;2.88;;;35.80;47.50;;;;;;5032851;28;20033;-85
2021/05/11 16:05:38;;;;;;;8.20;2.88;;;35.20;46.80;;;;;;5015053;28;20415;-88
2021/05/11 16:08:30;;;;;;;8.32;2.97;;;35.40;47.50;;;;;;5017323;28;20163;-85
2021/05/11 16:10:57;;;;;;;5.85;2.83;;;35.80;46.90;;;;;;5033768;28;20029;-84
2021/05/11 16:13:25;;;;;;;5.68;3.00;;;33.60;48.20;;;;;;5032979;28;20083;-81
2021/05/11 16:15:51;;;;;;;6.22;2.97;;;32.00;50.70;;;;;;5034447;28;20025;-81
2021/05/11 16:18:18;;;;;;;34.15;26.17;;;31.70;52.00;;;;;;5052438;28;20042;-81
2021/05/11 16:20:43;;;;;;;9.30;3.70;;;31.60;52.30;;;;;;5034095;28;20116;-80
2021/05/11 16:23:09;;;;;;;5.97;3.10;;;32.40;50.70;;;;;;5052911;28;20124;-86
2021/05/11 16:25:38;;;;;;;6.45;3.10;;;34.00;48.60;;;;;;5053995;28;20491;-84
2021/05/11 16:28:05;;;;;;;21.03;15.87;;;35.10;47.90;;;;;;5052252;28;20033;-90
2021/05/11 16:30:32;;;;;;;13.18;9.70;;;33.10;48.10;;;;;;5034684;28;20029;-83
2021/05/11 16:32:58;;;;;;;15.15;12.07;;;33.90;48.40;;;;;;5034215;28;20063;-82
2021/05/11 16:35:24;;;;;;;63.50;56.55;;;34.80;47.90;;;;;;5051836;28;20029;-81
2021/05/11 16:37:50;;;;;;;33.25;29.50;;;35.30;47.30;;;;;;5033415;28;20024;-82
2021/05/11 16:40:16;;;;;;;10.98;6.82;;;35.10;47.50;;;;;;5049757;28;20422;-79
2021/05/11 16:42:43;;;;;;;6.07;4.20;;;34.30;47.90;;;;;;5027057;28;20087;-81
2021/05/11 16:45:12;;;;;;;7.88;3.00;;;32.20;49.90;;;;;;4999540;28;20041;-81
2021/05/11 16:48:10;;;;;;;5.80;3.22;;;31.70;51.30;;;;;;5011305;28;20521;-80
2021/05/11 16:50:36;;;;;;;5.85;3.22;;;32.60;50.40;;;;;;5022786;28;20107;-78
2021/05/11 16:53:04;;;;;;;6.53;3.65;;;33.30;49.90;;;;;;5012661;28;20029;-79
2021/05/11 16:55:31;;;;;;;8.15;3.42;;;33.80;48.80;;;;;;5039830;28;20399;-78
2021/05/11 16:57:58;;;;;;;8.27;3.75;;;33.20;48.70;;;;;;5028245;28;20040;-80
2021/05/11 17:00:25;;;;;;;9.98;3.58;;;32.90;49.20;;;;;;5025435;28;20111;-80
2021/05/11 17:02:51;;;;;;;6.28;3.00;;;32.80;48.50;;;;;;5034281;28;20176;-81
2021/05/11 17:05:21;;;;;;;6.95;2.83;;;32.90;49.00;;;;;;5029477;28;20378;-83
2021/05/11 17:07:49;;;;;;;16.08;9.77;;;32.30;49.10;;;;;;5036094;28;20025;-83
2021/05/11 17:10:16;;;;;;;11.82;6.25;;;31.50;50.00;;;;;;5031148;28;20036;-83
2021/05/11 17:12:42;;;;;;;8.68;4.70;;;30.00;51.90;;;;;;5035872;28;20384;-79
2021/05/11 17:15:09;;;;;;;18.60;13.93;;;28.80;53.60;;;;;;5026694;28;20497;-79
2021/05/11 17:17:35;;;;;;;14.80;12.32;;;27.90;55.60;;;;;;5029205;28;20041;-84
2021/05/11 17:20:01;;;;;;;17.95;13.38;;;27.40;57.00;;;;;;5026569;28;20529;-78
2021/05/11 17:22:27;;;;;;;11.70;5.00;;;26.90;58.20;;;;;;5039096;28;20028;-76
2021/05/11 17:24:53;;;;;;;10.05;3.42;;;26.50;58.90;;;;;;5044669;28;20024;-77